Nearby METAR Reports

 

EGOS - RAF Shawbury, Shropshire, UK
Distance from station: NE 9mi, 14km
Updated: 19/06/2018 16:50
Mostly cloudy
Mostly cloudy
 Wind from WSW
Wind: WSW 16 mph , 26 km/h
Temperature: 20°C
Dew Point: 16°C
Humidity: 78%
Barometer: 1020 hPa
Clouds: Mostly cloudy
Visibility: 6 miles , 10 km
Cloud details: Few Clouds 549 m
Partly cloudy 853 m
Mostly cloudy 1372 m
2018/06/19 15:50 EGOS 191550Z 25014KT 9999 FEW018 SCT028 BKN045 20/16 Q1020 BLU NOSIG
KNUQ - Moffett Nas/Mtn, California, USA
Distance from station: N 9mi, 14km
Updated: 19/06/2018 16:56
Mostly cloudy
Mostly cloudy
 Wind from calm
Wind: Calm
Temperature: 16°C
Dew Point: 12°C
Humidity: 77%
Barometer: 1017.9 hPa
Clouds: Mostly cloudy
Visibility: 10 miles , 16 km
Cloud details: Mostly cloudy 396 m
2018/06/19 15:56 KNUQ 191556Z 00000KT 10SM BKN013 16/12 A3006 RMK AO2 SLP181 T01610122
 
KPAO - Palo Alto, California, USA
Distance from station: NNW 14mi, 23km
Updated: 19/06/2018 16:47
Overcast
Overcast
 Wind from varies
Wind: varies 5 mph , 7 km/h
Temperature: 15°C
Dew Point: 12°C
Humidity: 82%
Barometer: 1017.9 hPa
Clouds: Overcast
Visibility: 10 miles , 16 km
Cloud details: Overcast 366 m
2018/06/19 15:47 KPAO 191547Z VRB04KT 10SM OVC012 15/12 A3006
KRHV - San Jose/Reid, California, USA
Distance from station: ENE 12mi, 19km
Updated: 19/06/2018 17:14
Clear
Clear
 Wind from varies
Wind: varies 6 mph , 9 km/h
Temperature: 19°C
Dew Point: 12°C
Humidity: 64%
Barometer: 1016.9 hPa
Clouds: Clear
Visibility: 10 miles , 16 km
2018/06/19 16:14 KRHV 191614Z VRB05KT 10SM SKC 19/12 A3003
 
KOAK - Oakland, California, USA
Distance from station: NNW 31mi, 50km
Updated: 19/06/2018 16:53
Mist, Overcast
Mist, Overcast
 Wind from WSW
Wind: WSW 8 mph , 13 km/h
Temperature: 13°C
Dew Point: 11°C
Humidity: 88%
Barometer: 1018.3 hPa
Summary: Mist
Clouds: Overcast
Visibility: 6 miles , 10 km
Cloud details: Overcast 213 m
2018/06/19 15:53 KOAK 191553Z 24007KT 6SM BR OVC007 13/11 A3007 RMK AO2 SLP181 T01280111
KSQL - San Carlos Airpo, California, USA
Distance from station: NW 21mi, 34km
Updated: 19/06/2018 16:47
Overcast
Overcast
 Wind from N
Wind: N 5 mph , 7 km/h
Temperature: 14°C
Dew Point: 12°C
Humidity: 88%
Barometer: 1017.9 hPa
Clouds: Overcast
Visibility: 10 miles , 16 km
Cloud details: Overcast 396 m
2018/06/19 15:47 KSQL 191547Z 36004KT 10SM OVC013 14/12 A3006
 
KSFO - San Francisco, California, USA
Distance from station: NW 30mi, 49km
Updated: 19/06/2018 16:56
Overcast
Overcast
 Wind from W
Wind: W 7 mph , 11 km/h
Temperature: 14°C
Dew Point: 11°C
Humidity: 82%
Barometer: 1017.9 hPa
Clouds: Overcast
Visibility: 10 miles , 16 km
Cloud details: Overcast 213 m
2018/06/19 15:56 KSFO 191556Z 26006KT 10SM OVC007 14/11 A3006 RMK AO2 SLP178 T01390106
KE16 - San Martin, California, USA
Distance from station: ESE 27mi, 43km
Updated: 19/06/2018 17:15
Clear
Clear
 Wind from N
Wind: N 3 mph , 6 km/h
Temperature: 17°C
Dew Point: 12°C
Humidity: 73%
Barometer: 1017.9 hPa
Clouds: Clear
Visibility: 10 miles , 16 km
2018/06/19 16:15 KE16 191615Z AUTO 35003KT 10SM CLR 17/12 A3006 RMK AO2
 
KWVI - Watsonville, California, USA
Distance from station: SSE 27mi, 44km
Updated: 19/06/2018 16:53
Mist, Overcast
Mist, Overcast
 Wind from calm
Wind: Calm
Temperature: 13°C
Dew Point: 12°C
Humidity: 94%
Barometer: 1017.9 hPa
Summary: Mist
Clouds: Overcast
Visibility: 3 miles , 5 km
Cloud details: Overcast 122 m
2018/06/19 15:53 KWVI 191553Z AUTO 00000KT 3SM BR OVC004 13/12 A3006 RMK AO2 SLP180 T01280117 $
KHAF - Half Moon Bay, California, USA
Distance from station: WNW 31mi, 50km
Updated: 19/06/2018 17:15
Mist, Overcast
Mist, Overcast
 Wind from NNW
Wind: NNW 3 mph , 6 km/h
Temperature: 12°C
Dew Point: 11°C
Humidity: 94%
Barometer: 1018.6 hPa
Summary: Mist
Clouds: Overcast
Visibility: 4 miles , 6 km
Cloud details: Overcast 152 m
2018/06/19 16:15 KHAF 191615Z AUTO 33003KT 4SM BR OVC005 12/11 A3008 RMK AO2
 
KHWD - Hayward, California, USA
Distance from station: N 28mi, 44km
Updated: 19/06/2018 16:54
Overcast
Overcast
 Wind from NW
Wind: NW 8 mph , 13 km/h
Temperature: 14°C
Dew Point: 11°C
Humidity: 82%
Barometer: 1017.9 hPa
Clouds: Overcast
Visibility: 10 miles , 16 km
Cloud details: Overcast 274 m
2018/06/19 15:54 KHWD 191554Z 32007KT 10SM OVC009 14/11 A3006 RMK AO2 SLP189 T01440111
KLVK - Livermore, California, USA
Distance from station: NNE 31mi, 51km
Updated: 19/06/2018 16:53
Few Clouds
Few Clouds
 Wind from varies
Wind: varies 3 mph , 6 km/h
Temperature: 16°C
Dew Point: 14°C
Humidity: 88%
Barometer: 1016.9 hPa
Clouds: Few Clouds
Visibility: 10 miles , 16 km
Cloud details: Few Clouds 305 m
2018/06/19 15:53 KLVK 191553Z VRB03KT 10SM FEW010 16/14 A3003 RMK AO2 SLP168 T01610144